Smithton, Missouri
Current Conditions -  °F | °C
As of 9:04 PM on Sunday 23 Nov 2014 (Local Time) from KDMO Reporting Station
Heavy Rain Heavy Rain  
Wind Chill: 36°   Ceiling: 1100
Heat Index: 45°   Visibility: 3mi
Dew Point: 43°   Wind: 23mph
Humidity: 93%   Direction: 320°NW
Pressure: 29.36"   Gusts: 32mph
Location:  38.68°N, 93.09°W
Report Text: KDMO 240304Z AUTO 32020G28KT 3SM +RA BR SCT006 BKN011 OVC019 07/06 A2936 RMK AO2 PK WND 31028/0302 P0007 T00720061
Loading
Personal Weather Stations






























Interactive Weather Map New forecast layout! Learn more

10-Day Weather Forecast

Advertisements
Track Severe Weather on mobile